Time;durP1;ratioP1;P1;durP2;ratioP2;P2;SDS_P1;SDS_P2;PMS_P1;PMS_P2;Temp;Humidity;BMP_temperature;BMP_pressure;BME280_temperature;BME280_humidity;BME280_pressure;Samples;Min_cycle;Max_cycle;Signal;HPM_P1;HPM_P2
2022/05/21 00:00:24;;;;;;;6.60;5.38;;;;;;;17.79;63.09;100215.09;4941226;28;20126;-84
2022/05/21 00:02:51;;;;;;;7.63;5.55;;;;;;;17.78;62.98;100222.34;4957082;28;20114;-83
2022/05/21 00:05:18;;;;;;;6.68;4.82;;;;;;;17.74;63.45;100217.47;4941261;28;20033;-83
2022/05/21 00:07:44;;;;;;;6.20;4.73;;;;;;;17.67;63.06;100225.47;4940944;28;20023;-84
2022/05/21 00:10:12;;;;;;;7.20;5.15;;;;;;;17.65;63.67;100224.78;4941083;28;20274;-83
2022/05/21 00:12:38;;;;;;;6.75;4.97;;;;;;;17.71;63.87;100223.25;4941233;28;20038;-84
2022/05/21 00:15:04;;;;;;;5.53;4.70;;;;;;;17.64;62.85;100231.19;4940878;28;20030;-83
2022/05/21 00:17:29;;;;;;;5.80;4.22;;;;;;;17.60;63.45;100225.31;4940767;28;20051;-83
2022/05/21 00:19:54;;;;;;;5.95;4.47;;;;;;;17.56;63.45;100229.38;4974077;28;20031;-84
2022/05/21 00:22:22;;;;;;;5.13;3.70;;;;;;;17.53;63.51;100234.31;4957045;28;20070;-83
2022/05/21 00:24:48;;;;;;;5.07;3.90;;;;;;;17.52;63.62;100232.63;4973776;28;20054;-84
2022/05/21 00:27:13;;;;;;;5.38;3.67;;;;;;;17.52;63.42;100235.31;4956107;28;20042;-85
2022/05/21 00:29:38;;;;;;;4.30;3.65;;;;;;;17.51;63.89;100237.19;4940677;28;20031;-83
2022/05/21 00:32:04;;;;;;;5.55;3.50;;;;;;;17.43;63.52;100231.78;4940534;28;20027;-83
2022/05/21 00:34:30;;;;;;;3.80;3.38;;;;;;;17.48;63.26;100228.53;4940801;28;20030;-83
2022/05/21 00:36:56;;;;;;;4.70;3.25;;;;;;;17.43;63.61;100228.22;4940552;28;20043;-83
2022/05/21 00:39:21;;;;;;;3.60;2.83;;;;;;;17.39;63.27;100224.19;4940558;28;20117;-84
2022/05/21 00:41:47;;;;;;;3.92;2.75;;;;;;;17.40;63.06;100228.59;4940214;28;20034;-83
2022/05/21 00:44:12;;;;;;;4.13;2.80;;;;;;;17.30;62.84;100226.94;4956718;28;20038;-83
2022/05/21 00:46:43;;;;;;;3.30;2.45;;;;;;;17.38;62.79;100233.31;4940352;28;20615;-83
2022/05/21 00:49:09;;;;;;;3.40;2.45;;;;;;;17.33;62.57;100230.31;4956521;28;20027;-83
2022/05/21 00:52:10;;;;;;;2.58;2.03;;;;;;;17.27;62.49;100230.00;4956351;28;20389;-83
2022/05/21 00:54:45;;;;;;;3.08;2.22;;;;;;;17.29;62.63;100224.41;4910504;28;20567;-84
2022/05/21 00:57:16;;;;;;;2.47;2.15;;;;;;;17.24;62.63;100227.63;4940423;28;20469;-84
2022/05/21 00:59:48;;;;;;;3.25;2.10;;;;;;;17.22;62.61;100228.84;4956311;28;20081;-83
2022/05/21 01:02:16;;;;;;;2.95;2.10;;;;;;;17.17;63.11;100240.16;4956011;28;20374;-84
2022/05/21 01:04:44;;;;;;;4.07;2.17;;;;;;;17.15;62.76;100241.34;4939587;28;20117;-83
2022/05/21 01:07:10;;;;;;;2.63;1.90;;;;;;;17.16;63.27;100230.38;4940069;28;20034;-83
2022/05/21 01:09:38;;;;;;;3.33;1.80;;;;;;;17.17;62.76;100221.25;4940129;28;20474;-83
2022/05/21 01:12:06;;;;;;;3.45;1.92;;;;;;;17.13;63.15;100229.88;4956158;28;20046;-83
2022/05/21 01:14:31;;;;;;;2.88;1.88;;;;;;;17.09;63.02;100232.09;4956025;28;20113;-84
2022/05/21 01:16:56;;;;;;;2.92;1.80;;;;;;;17.11;62.46;100237.31;4940380;28;20051;-84
2022/05/21 01:19:22;;;;;;;2.47;1.70;;;;;;;17.12;62.50;100236.31;4940143;28;20019;-83
2022/05/21 01:21:47;;;;;;;3.15;1.70;;;;;;;17.11;62.47;100230.06;4956239;28;20247;-83
2022/05/21 01:24:13;;;;;;;2.17;1.50;;;;;;;17.03;62.32;100237.31;4939929;28;20046;-83
2022/05/21 01:26:39;;;;;;;3.47;2.05;;;;;;;17.02;63.29;100239.16;4939582;28;20367;-84
2022/05/21 01:29:11;;;;;;;2.00;1.70;;;;;;;17.04;62.87;100242.56;4955844;28;20030;-83
2022/05/21 01:31:37;;;;;;;1.90;1.52;;;;;;;17.06;62.40;100235.13;4940160;28;20023;-84
2022/05/21 01:34:02;;;;;;;3.78;1.73;;;;;;;17.10;62.32;100238.34;4955951;28;20084;-84
2022/05/21 01:36:28;;;;;;;2.88;1.60;;;;;;;17.05;62.78;100232.59;4956015;28;20037;-83
2022/05/21 01:38:53;;;;;;;3.22;1.63;;;;;;;17.03;62.41;100237.31;4955977;28;20110;-83
2022/05/21 01:41:18;;;;;;;3.20;1.65;;;;;;;17.08;62.34;100230.41;4940195;28;20022;-84
2022/05/21 01:46:28;;;;;;;3.05;1.70;;;;;;;17.18;61.93;100236.44;4958616;28;20516;-83
2022/05/21 01:48:53;;;;;;;2.45;1.40;;;;;;;17.07;62.06;100228.72;4939923;28;20035;-83
2022/05/21 01:51:19;;;;;;;4.18;1.42;;;;;;;17.06;61.43;100220.78;4939895;28;20070;-83
2022/05/21 01:53:45;;;;;;;2.50;1.17;;;;;;;17.02;61.67;100212.16;4958624;28;20385;-83
2022/05/21 01:56:11;;;;;;;3.67;1.45;;;;;;;17.00;61.91;100208.78;4942776;28;20030;-83
2022/05/21 01:58:37;;;;;;;2.40;1.27;;;;;;;17.03;61.83;100218.38;4977059;28;20030;-83
2022/05/21 02:01:04;;;;;;;2.92;1.40;;;;;;;17.00;62.28;100216.88;4943312;28;20264;-83
2022/05/21 02:03:29;;;;;;;4.70;1.30;;;;;;;16.93;61.65;100215.88;4943354;28;20029;-83
2022/05/21 02:05:54;;;;;;;2.22;1.33;;;;;;;17.03;62.66;100210.28;4943314;28;20027;-83
2022/05/21 02:08:20;;;;;;;3.97;1.30;;;;;;;16.97;62.03;100214.53;4942923;28;20034;-83
2022/05/21 02:10:46;;;;;;;5.70;1.73;;;;;;;16.90;62.39;100210.81;4942435;28;20043;-83
2022/05/21 02:13:13;;;;;;;4.18;1.30;;;;;;;16.83;61.77;100205.28;4942919;28;20026;-83
2022/05/21 02:15:38;;;;;;;3.05;1.15;;;;;;;16.89;62.54;100201.88;4943011;28;20030;-83
2022/05/21 02:18:04;;;;;;;2.85;1.05;;;;;;;16.86;62.23;100207.63;4959175;28;20106;-83
2022/05/21 02:20:29;;;;;;;4.18;1.42;;;;;;;16.86;62.11;100206.78;4939634;28;20413;-82
2022/05/21 02:22:54;;;;;;;3.70;1.02;;;;;;;16.85;62.10;100211.34;4942947;28;20236;-83
2022/05/21 02:25:20;;;;;;;3.83;1.20;;;;;;;16.85;62.00;100203.25;4959125;28;20539;-83
2022/05/21 02:27:45;;;;;;;3.60;1.20;;;;;;;16.84;62.09;100204.25;4959355;28;20050;-83
2022/05/21 02:30:11;;;;;;;3.60;1.20;;;;;;;16.83;62.27;100207.97;4942935;28;20026;-83
2022/05/21 02:32:36;;;;;;;2.63;1.30;;;;;;;16.80;61.93;100210.19;4958790;28;20488;-83
2022/05/21 02:35:02;;;;;;;3.75;1.05;;;;;;;16.83;61.59;100210.69;4942819;28;20081;-83
2022/05/21 02:40:13;;;;;;;5.32;1.35;;;;;;;16.82;61.73;100191.94;4961888;28;20085;-82
2022/05/21 02:42:45;;;;;;;2.20;1.10;;;;;;;16.87;62.18;100205.78;4959213;28;20019;-83
2022/05/21 02:45:19;;;;;;;3.30;1.20;;;;;;;16.85;62.51;100207.81;4958795;28;20488;-83
2022/05/21 02:47:44;;;;;;;4.10;1.10;;;;;;;16.72;61.89;100194.00;4942440;28;20033;-83
2022/05/21 02:50:12;;;;;;;2.60;1.30;;;;;;;16.63;61.79;100203.94;4958469;28;20027;-83
2022/05/21 02:52:37;;;;;;;2.28;1.15;;;;;;;16.75;61.55;100205.28;4958528;28;20068;-82
2022/05/21 02:55:04;;;;;;;4.53;1.30;;;;;;;16.76;61.74;100206.13;4958520;28;20385;-83
2022/05/21 02:57:29;;;;;;;4.00;1.17;;;;;;;16.71;61.22;100213.91;4942488;28;20035;-83
2022/05/21 02:59:55;;;;;;;3.97;1.13;;;;;;;16.72;61.50;100210.19;4942500;28;20508;-83
2022/05/21 03:02:20;;;;;;;3.58;1.17;;;;;;;16.61;61.96;100211.38;4942071;28;20093;-83
2022/05/21 03:04:46;;;;;;;3.83;1.08;;;;;;;16.62;62.05;100213.06;4957844;28;20027;-83
2022/05/21 03:07:11;;;;;;;3.88;1.20;;;;;;;16.66;61.55;100217.97;4957740;28;20034;-83
2022/05/21 03:12:21;;;;;;;2.47;0.90;;;;;;;16.57;61.20;100221.66;4960478;28;20232;-83
2022/05/21 03:14:46;;;;;;;4.55;1.10;;;;;;;16.54;62.09;100227.38;4941907;28;20023;-83
2022/05/21 03:17:12;;;;;;;5.50;1.10;;;;;;;16.57;62.52;100223.53;4941678;28;20046;-84
2022/05/21 03:19:38;;;;;;;3.08;0.98;;;;;;;16.59;61.58;100232.28;4941427;28;20027;-82
2022/05/21 03:22:03;;;;;;;3.35;1.05;;;;;;;16.52;62.03;100228.56;4941983;28;20106;-82
2022/05/21 03:24:29;;;;;;;5.07;1.05;;;;;;;16.45;62.19;100230.25;4957671;28;20086;-83
2022/05/21 03:26:54;;;;;;;2.85;1.10;;;;;;;16.50;61.97;100225.19;4941846;28;20031;-83
2022/05/21 03:29:20;;;;;;;2.33;0.98;;;;;;;16.50;62.04;100230.59;4941910;28;20177;-83
2022/05/21 03:31:45;;;;;;;4.07;1.10;;;;;;;16.51;61.41;100224.16;4958004;28;20035;-84
2022/05/21 03:34:10;;;;;;;3.65;0.85;;;;;;;16.41;61.74;100237.84;4957795;28;20432;-83
2022/05/21 03:36:36;;;;;;;4.20;1.05;;;;;;;16.43;62.52;100226.88;4941708;28;20393;-83
2022/05/21 03:39:02;;;;;;;2.90;1.02;;;;;;;16.53;62.08;100223.00;4941959;28;20484;-83
2022/05/21 03:41:28;;;;;;;3.72;1.10;;;;;;;16.56;61.31;100228.09;4941608;28;20085;-83
2022/05/21 03:43:55;;;;;;;2.45;1.00;;;;;;;16.50;61.93;100227.88;4941430;28;20473;-83
2022/05/21 03:46:21;;;;;;;2.45;1.20;;;;;;;16.48;61.81;100233.47;4957937;28;20110;-83
2022/05/21 03:48:46;;;;;;;1.52;0.90;;;;;;;16.51;61.95;100233.13;4941312;28;20025;-83
2022/05/21 03:51:11;;;;;;;2.47;0.90;;;;;;;16.50;62.57;100239.53;4941157;28;20081;-83
2022/05/21 03:53:37;;;;;;;3.15;1.00;;;;;;;16.59;62.64;100243.09;4957369;28;20069;-83
2022/05/21 03:56:04;;;;;;;3.92;0.98;;;;;;;16.61;62.35;100249.16;4940752;28;20022;-83
2022/05/21 03:58:29;;;;;;;2.95;1.10;;;;;;;16.59;62.24;100246.63;4941093;28;20133;-83
2022/05/21 04:00:54;;;;;;;1.95;0.90;;;;;;;16.63;62.77;100239.03;4941206;28;20485;-83
2022/05/21 04:03:20;;;;;;;4.15;1.08;;;;;;;16.61;63.36;100239.22;4941160;28;20093;-83
2022/05/21 04:05:45;;;;;;;3.70;1.38;;;;;;;16.62;62.88;100250.84;4974414;28;20027;-83
2022/05/21 04:08:10;;;;;;;5.70;1.30;;;;;;;16.60;63.51;100248.34;4941056;28;20054;-83
2022/05/21 04:10:36;;;;;;;3.22;1.13;;;;;;;16.56;63.87;100241.59;4941031;28;20381;-83
2022/05/21 04:13:02;;;;;;;3.67;1.23;;;;;;;16.55;62.65;100239.88;4940850;28;20030;-83
2022/05/21 04:15:27;;;;;;;7.20;1.45;;;;;;;16.65;63.58;100251.41;4940481;28;20102;-83
2022/05/21 04:17:56;;;;;;;4.70;1.35;;;;;;;16.56;63.47;100248.84;4940761;28;20178;-82
2022/05/21 04:20:24;;;;;;;4.93;1.55;;;;;;;16.54;62.98;100258.94;4941180;28;20054;-84
2022/05/21 04:22:51;;;;;;;5.43;1.42;;;;;;;16.55;63.73;100249.81;4957072;28;20469;-83
2022/05/21 04:25:16;;;;;;;3.42;1.35;;;;;;;16.55;63.80;100257.91;4956442;28;20042;-83
2022/05/21 04:27:42;;;;;;;4.82;1.25;;;;;;;16.54;64.28;100259.78;4956494;28;20046;-83
2022/05/21 04:30:11;;;;;;;4.75;1.60;;;;;;;16.51;64.01;100257.41;4940846;28;20042;-83
2022/05/21 04:32:36;;;;;;;6.30;1.38;;;;;;;16.53;63.66;100262.66;4956629;28;20023;-83
2022/05/21 04:35:02;;;;;;;4.20;1.20;;;;;;;16.44;64.09;100266.34;4956787;28;20105;-82
2022/05/21 04:37:27;;;;;;;3.75;1.60;;;;;;;16.53;63.81;100266.19;4940598;28;20148;-83
2022/05/21 04:39:53;;;;;;;2.22;1.27;;;;;;;16.52;64.00;100277.16;4956509;28;20026;-83
2022/05/21 04:42:18;;;;;;;4.28;1.45;;;;;;;16.41;63.94;100270.25;4956591;28;20074;-83
2022/05/21 04:44:43;;;;;;;2.80;1.33;;;;;;;16.43;64.19;100275.47;4940579;28;20042;-83
2022/05/21 04:47:09;;;;;;;4.70;1.50;;;;;;;16.47;64.09;100277.66;4955882;28;20038;-83
2022/05/21 04:49:35;;;;;;;4.15;1.50;;;;;;;16.45;63.63;100279.69;4956293;28;20107;-83
2022/05/21 04:52:04;;;;;;;4.55;1.50;;;;;;;16.53;64.19;100274.28;4940370;28;20022;-83
2022/05/21 04:54:30;;;;;;;5.32;1.85;;;;;;;16.48;64.52;100273.97;4956598;28;20054;-83
2022/05/21 04:56:55;;;;;;;5.63;1.88;;;;;;;16.46;64.95;100272.44;4940174;28;20062;-83
2022/05/21 04:59:20;;;;;;;5.65;1.38;;;;;;;16.51;65.22;100281.72;4940310;28;20046;-83
2022/05/21 05:01:46;;;;;;;5.32;1.70;;;;;;;16.49;64.93;100283.75;4940164;28;20027;-83
2022/05/21 05:04:11;;;;;;;5.88;1.85;;;;;;;16.48;65.43;100281.22;4956452;28;20041;-83
2022/05/21 05:06:38;;;;;;;6.20;1.75;;;;;;;16.51;65.93;100286.28;4939738;28;20113;-83
2022/05/21 05:09:05;;;;;;;6.90;1.75;;;;;;;16.45;64.97;100290.50;4955921;28;20026;-83
2022/05/21 05:11:30;;;;;;;5.07;1.90;;;;;;;16.38;65.46;100300.28;4940010;28;20023;-83
2022/05/21 05:13:56;;;;;;;6.82;1.95;;;;;;;16.41;65.43;100283.75;4940350;28;20098;-82
2022/05/21 05:16:21;;;;;;;4.63;1.90;;;;;;;16.42;65.92;100295.38;4940174;28;20465;-83
2022/05/21 05:18:46;;;;;;;4.35;1.73;;;;;;;16.34;65.11;100288.97;4940125;28;20103;-83
2022/05/21 05:21:11;;;;;;;4.75;1.65;;;;;;;16.38;65.77;100286.78;4956202;28;20540;-83
2022/05/21 05:23:37;;;;;;;6.82;1.88;;;;;;;16.45;65.83;100293.19;4955703;28;20043;-83
2022/05/21 05:26:02;;;;;;;6.03;1.65;;;;;;;16.48;65.66;100294.72;4939761;28;20023;-83
2022/05/21 05:28:28;;;;;;;4.55;1.95;;;;;;;16.51;65.31;100294.38;4959451;28;20023;-83
2022/05/21 05:30:53;;;;;;;6.35;1.85;;;;;;;16.49;65.29;100285.59;4940683;29;20524;-83
2022/05/21 05:33:19;;;;;;;4.25;1.50;;;;;;;16.46;65.27;100294.88;4941091;28;20051;-84
2022/05/21 05:35:48;;;;;;;8.63;2.20;;;;;;;16.48;64.94;100298.25;4959784;28;20042;-84
2022/05/21 05:38:14;;;;;;;;;;;;;;;16.50;65.53;100290.81;4960647;28;20065;-84
2022/05/21 05:40:40;;;;;;;5.95;1.95;;;;;;;16.43;65.88;100299.78;4943787;28;20376;-84
2022/05/21 05:43:06;;;;;;;5.45;1.80;;;;;;;16.48;66.50;100297.41;4959851;28;20043;-83
2022/05/21 05:45:31;;;;;;;5.60;2.25;;;;;;;16.48;65.47;100298.25;4959870;28;20106;-83
2022/05/21 05:47:57;;;;;;;4.13;1.90;;;;;;;16.54;66.14;100292.19;4959418;28;20069;-84
2022/05/21 05:50:23;;;;;;;6.07;2.00;;;;;;;16.63;65.70;100302.00;4959837;28;20027;-84
2022/05/21 05:52:48;;;;;;;5.60;1.77;;;;;;;16.64;66.07;100300.16;4943465;28;20015;-84
2022/05/21 05:55:14;;;;;;;6.45;2.17;;;;;;;16.60;65.62;100304.19;4942863;28;20400;-83
2022/05/21 05:57:39;;;;;;;3.92;1.77;;;;;;;16.60;65.66;100307.75;4943385;28;20065;-82
2022/05/21 06:00:06;;;;;;;5.55;2.10;;;;;;;16.59;66.41;100318.72;4959366;28;20041;-83
2022/05/21 06:05:20;;;;;;;5.03;1.77;;;;;;;16.51;65.88;100318.66;4962264;28;20106;-83
2022/05/21 06:07:54;;;;;;;4.88;2.17;;;;;;;16.58;66.68;100322.41;4942986;28;20081;-83
2022/05/21 06:10:43;;;;;;;8.07;1.98;;;;;;;16.69;67.48;100305.91;4959302;28;20019;-83
2022/05/21 06:13:09;;;;;;;6.15;2.40;;;;;;;16.69;65.89;100308.63;4943352;28;20046;-83
2022/05/21 06:15:35;;;;;;;4.75;2.00;;;;;;;16.59;66.19;100306.06;4959192;28;20027;-83
2022/05/21 06:18:12;;;;;;;4.85;2.08;;;;;;;16.67;66.60;100311.47;4942980;28;20537;-83
2022/05/21 06:20:39;;;;;;;7.03;2.50;;;;;;;16.67;67.02;100324.16;4959348;28;20026;-83
2022/05/21 06:23:05;;;;;;;5.47;2.08;;;;;;;16.64;66.54;100311.78;4959186;28;20023;-83
2022/05/21 06:25:33;;;;;;;5.95;2.03;;;;;;;16.64;66.54;100324.44;4941967;28;20053;-83
2022/05/21 06:27:59;;;;;;;6.30;2.08;;;;;;;16.63;65.98;100323.59;4943167;28;20038;-83
2022/05/21 06:30:26;;;;;;;5.32;2.08;;;;;;;16.68;66.24;100321.28;4942916;28;20433;-82
2022/05/21 06:32:52;;;;;;;7.47;2.67;;;;;;;16.73;66.92;100323.47;4943097;28;20035;-82
2022/05/21 06:35:18;;;;;;;7.45;2.10;;;;;;;16.71;66.24;100317.38;4958884;28;20027;-83
2022/05/21 06:37:43;;;;;;;5.78;2.58;;;;;;;16.72;66.53;100323.63;4957915;28;20023;-84
2022/05/21 06:40:10;;;;;;;5.05;2.40;;;;;;;16.73;66.45;100328.03;4941890;28;20110;-83
2022/05/21 06:42:35;;;;;;;7.95;2.50;;;;;;;16.69;66.35;100322.13;4940924;28;20385;-83
2022/05/21 06:45:02;;;;;;;7.28;2.50;;;;;;;16.60;66.09;100336.59;4958605;28;20045;-83
2022/05/21 06:47:27;;;;;;;5.32;2.63;;;;;;;16.62;66.40;100334.56;4958928;28;20069;-83
2022/05/21 06:49:55;;;;;;;5.95;2.35;;;;;;;16.69;66.05;100341.03;4940835;28;20050;-83
2022/05/21 06:52:21;;;;;;;8.07;2.67;;;;;;;16.74;66.85;100341.38;4960087;28;20034;-83
2022/05/21 06:54:46;;;;;;;8.15;2.75;;;;;;;16.74;67.07;100341.38;4959453;28;20019;-83
2022/05/21 06:57:13;;;;;;;4.75;2.13;;;;;;;16.90;66.90;100343.22;4939220;29;20034;-82
2022/05/21 06:59:38;;;;;;;6.80;2.38;;;;;;;16.84;66.68;100350.13;4939270;29;20370;-83
2022/05/21 07:02:04;;;;;;;5.65;2.30;;;;;;;16.84;66.73;100343.88;4938682;29;20027;-82
2022/05/21 07:09:58;;;;;;;7.15;2.38;;;;;;;16.88;66.80;100345.25;4941864;29;20114;-82
2022/05/21 07:12:23;;;;;;;7.75;2.63;;;;;;;16.94;67.14;100352.66;4938562;29;20106;-82
2022/05/21 07:14:48;;;;;;;7.80;2.33;;;;;;;16.85;66.91;100351.81;4938776;29;20093;-82
2022/05/21 07:17:16;;;;;;;7.38;2.70;;;;;;;16.89;66.62;100345.06;4923024;29;20019;-81
2022/05/21 07:19:41;;;;;;;7.35;2.33;;;;;;;16.97;66.50;100347.78;4947201;28;20031;-83
2022/05/21 07:22:07;;;;;;;6.85;2.90;;;;;;;17.01;66.51;100340.16;4939025;29;20122;-82
2022/05/21 07:24:32;;;;;;;7.68;2.80;;;;;;;17.00;66.82;100352.84;4939567;29;20039;-83
2022/05/21 07:26:59;;;;;;;7.35;2.33;;;;;;;16.96;67.29;100350.63;4936661;29;20397;-85
2022/05/21 07:29:24;;;;;;;5.57;2.40;;;;;;;16.99;67.77;100364.66;4940012;29;20079;-82
2022/05/21 07:31:49;;;;;;;6.68;2.30;;;;;;;16.94;66.99;100352.66;4940637;29;20031;-83
2022/05/21 07:34:15;;;;;;;6.35;2.22;;;;;;;16.96;66.71;100356.88;4940681;29;20019;-84
2022/05/21 07:36:40;;;;;;;6.45;2.30;;;;;;;17.01;66.64;100356.38;4950564;28;20433;-84
2022/05/21 07:39:07;;;;;;;11.77;2.67;;;;;;;17.02;67.18;100349.13;4939411;28;20058;-86
2022/05/21 07:41:33;;;;;;;7.75;2.65;;;;;;;17.03;67.79;100350.81;4937179;28;20389;-84
2022/05/21 07:43:58;;;;;;;7.22;2.72;;;;;;;17.06;66.88;100345.09;4938875;28;20027;-84
2022/05/21 07:46:23;;;;;;;6.28;2.30;;;;;;;17.10;67.49;100351.84;4939197;28;20034;-83
2022/05/21 07:48:49;;;;;;;6.03;2.50;;;;;;;17.09;67.56;100361.81;4956034;28;20030;-84
2022/05/21 07:51:14;;;;;;;5.72;2.75;;;;;;;17.07;67.57;100353.03;4955617;28;20042;-84
2022/05/21 07:53:41;;;;;;;6.72;2.80;;;;;;;17.05;67.85;100356.91;4937243;28;20552;-84
2022/05/21 07:56:10;;;;;;;7.97;2.88;;;;;;;17.05;67.67;100357.75;4938599;28;20109;-84
2022/05/21 07:58:36;;;;;;;4.43;2.40;;;;;;;17.16;67.65;100361.97;4955347;28;20142;-83
2022/05/21 08:01:02;;;;;;;6.90;2.45;;;;;;;17.23;67.67;100368.38;4939665;28;20074;-83
2022/05/21 08:03:29;;;;;;;5.93;2.80;;;;;;;17.29;68.22;100360.44;4933952;28;20030;-84
2022/05/21 08:05:55;;;;;;;6.38;2.58;;;;;;;17.35;66.56;100366.16;4940005;28;20034;-82
2022/05/21 08:08:21;;;;;;;5.68;2.10;;;;;;;17.36;67.18;100362.44;4936739;28;20450;-84
2022/05/21 08:10:46;;;;;;;7.28;2.47;;;;;;;17.42;67.05;100361.75;4937100;29;20035;-83
2022/05/21 08:13:13;;;;;;;7.25;2.80;;;;;;;17.48;67.27;100359.19;4935232;29;20038;-83
2022/05/21 08:15:39;;;;;;;4.75;2.15;;;;;;;17.46;66.91;100366.63;4954240;28;20039;-83
2022/05/21 08:18:05;;;;;;;4.18;1.83;;;;;;;17.38;65.42;100369.38;4928555;28;20023;-83
2022/05/21 08:20:31;;;;;;;6.93;2.22;;;;;;;17.36;65.22;100370.56;4945033;28;20042;-83
2022/05/21 08:28:24;;;;;;;5.82;2.10;;;;;;;17.49;65.24;100369.00;4941302;29;20089;-83
2022/05/21 08:30:50;;;;;;;7.32;2.15;;;;;;;17.47;64.51;100367.47;4922842;29;20031;-83
2022/05/21 08:33:17;;;;;;;5.47;2.10;;;;;;;17.49;64.69;100369.00;4939347;28;20023;-81
2022/05/21 08:35:42;;;;;;;5.88;2.40;;;;;;;17.51;64.71;100369.69;4955937;28;20061;-82
2022/05/21 08:38:09;;;;;;;4.07;1.70;;;;;;;17.53;64.20;100374.94;4957689;28;20066;-82
2022/05/21 08:40:50;;;;;;;6.35;1.80;;;;;;;17.52;64.20;100365.13;4941805;28;20050;-82
2022/05/21 08:43:36;;;;;;;5.95;2.08;;;;;;;17.50;64.32;100373.41;4972951;28;20046;-83
2022/05/21 08:46:17;;;;;;;5.68;2.10;;;;;;;17.53;65.13;100367.66;4953472;28;20130;-83
2022/05/21 08:48:53;;;;;;;5.53;2.15;;;;;;;17.40;64.71;100378.16;4954344;28;20481;-82
2022/05/21 08:51:21;;;;;;;5.43;2.20;;;;;;;17.43;63.68;100377.81;4934001;28;20015;-82
2022/05/21 08:53:49;;;;;;;6.55;2.25;;;;;;;17.49;63.82;100373.56;4951834;28;20023;-81
2022/05/21 08:56:15;;;;;;;4.95;1.98;;;;;;;17.57;64.08;100373.56;4938252;28;20031;-81
2022/05/21 08:58:45;;;;;;;6.25;2.30;;;;;;;17.64;64.77;100371.84;4954796;28;20031;-80
2022/05/21 09:01:12;;;;;;;6.43;2.50;;;;;;;17.60;63.83;100376.78;4937692;29;20031;-81
2022/05/21 09:03:38;;;;;;;6.15;2.05;;;;;;;17.58;64.19;100375.25;4954699;28;20030;-81
2022/05/21 09:06:18;;;;;;;5.82;2.20;;;;;;;17.59;64.45;100371.53;4957258;28;20030;-88
2022/05/21 09:08:55;;;;;;;4.65;1.90;;;;;;;17.63;63.59;100373.72;4975263;28;20057;-88
2022/05/21 09:11:37;;;;;;;4.55;2.00;;;;;;;17.68;63.41;100373.22;4957819;28;20027;-87
2022/05/21 09:14:10;;;;;;;6.22;2.33;;;;;;;17.55;63.86;100387.28;4974057;28;20035;-88
2022/05/21 09:16:55;;;;;;;4.28;1.90;;;;;;;17.55;62.85;100383.72;4940457;28;20037;-88
2022/05/21 09:19:34;;;;;;;4.50;1.92;;;;;;;17.61;62.90;100383.03;4944150;28;20101;-88
2022/05/21 09:22:02;;;;;;;4.15;1.92;;;;;;;17.65;63.19;100381.66;4942077;28;20027;-88
2022/05/21 09:24:43;;;;;;;5.18;2.08;;;;;;;17.69;62.51;100376.78;4941578;28;20374;-88
2022/05/21 09:27:27;;;;;;;4.80;1.90;;;;;;;17.71;61.37;100372.88;4941758;28;20548;-87
2022/05/21 09:30:14;;;;;;;5.07;2.05;;;;;;;17.77;61.84;100374.03;4957831;28;20054;-88
2022/05/21 09:32:41;;;;;;;4.15;1.80;;;;;;;17.74;60.47;100377.94;4943989;28;20125;-87
2022/05/21 09:35:14;;;;;;;5.87;2.60;;;;;;;17.75;61.35;100376.09;4940157;28;20988;-86
2022/05/21 09:37:40;;;;;;;5.20;1.85;;;;;;;17.79;62.14;100367.44;4941240;28;20038;-85
2022/05/21 09:40:35;;;;;;;5.43;2.17;;;;;;;17.81;61.94;100381.63;4933550;29;20023;-87
2022/05/21 09:46:16;;;;;;;6.13;2.28;;;;;;;17.77;61.29;100376.75;4957939;28;20042;-88
2022/05/21 09:48:41;;;;;;;5.35;2.05;;;;;;;17.77;60.55;100368.63;4956973;28;20074;-89
2022/05/21 09:51:29;;;;;;;7.03;2.20;;;;;;;17.71;59.47;100369.34;4957735;28;20405;-87
2022/05/21 09:53:56;;;;;;;4.43;2.15;;;;;;;17.78;60.96;100371.16;4940583;28;20118;-88
2022/05/21 09:56:27;;;;;;;5.20;2.20;;;;;;;17.80;60.56;100376.41;4934914;28;20552;-87
2022/05/21 09:59:14;;;;;;;6.10;2.10;;;;;;;17.85;61.44;100387.53;4935949;28;20027;-88
2022/05/21 10:01:44;;;;;;;5.87;1.87;;;;;;;17.82;60.99;100380.63;4940818;28;20960;-89
2022/05/21 10:04:35;;;;;;;4.43;2.22;;;;;;;17.85;61.07;100388.38;4938272;29;20429;-89
2022/05/21 10:13:03;;;;;;;7.97;2.30;;;;;;;17.86;61.13;100383.81;4941302;29;20039;-89
2022/05/21 10:15:35;;;;;;;5.85;2.13;;;;;;;17.84;60.78;100378.59;4931866;28;20520;-88
2022/05/21 10:18:29;;;;;;;6.30;2.25;;;;;;;17.86;61.08;100379.25;4944630;28;20457;-88
2022/05/21 10:21:00;;;;;;;5.85;2.20;;;;;;;17.90;60.22;100383.28;4944687;28;20022;-88
2022/05/21 10:23:34;;;;;;;4.93;1.70;;;;;;;17.96;59.07;100379.03;4925414;28;20078;-88
2022/05/21 10:26:15;;;;;;;5.85;2.20;;;;;;;17.90;58.10;100386.00;4941416;29;20029;-88
2022/05/21 10:28:47;;;;;;;4.50;1.92;;;;;;;17.99;58.62;100388.72;4959751;28;20038;-88
2022/05/21 10:31:15;;;;;;;4.47;1.95;;;;;;;18.03;58.70;100380.06;4977699;28;20477;-89
2022/05/21 10:33:55;;;;;;;6.35;1.95;;;;;;;18.03;58.27;100379.22;4960684;28;20026;-89
2022/05/21 10:36:30;;;;;;;4.20;1.70;;;;;;;18.05;57.89;100379.88;4944090;28;20027;-88
2022/05/21 10:39:07;;;;;;;6.38;1.85;;;;;;;18.04;58.77;100379.03;4944954;28;20086;-89
2022/05/21 10:42:00;;;;;;;4.20;1.70;;;;;;;18.03;57.89;100390.03;4941500;29;20030;-88
2022/05/21 10:44:31;;;;;;;4.32;1.88;;;;;;;18.15;59.17;100380.50;4958577;28;20034;-88
2022/05/21 10:47:04;;;;;;;6.45;1.73;;;;;;;18.12;57.83;100388.97;4942534;29;20031;-88
2022/05/21 10:49:57;;;;;;;5.63;2.03;;;;;;;17.90;56.21;100390.56;4925491;29;20051;-88
2022/05/21 10:52:28;;;;;;;4.25;1.92;;;;;;;17.79;55.99;100391.78;4958096;28;20469;-89
2022/05/21 10:54:56;;;;;;;4.25;1.77;;;;;;;17.81;56.73;100389.75;4940866;29;20031;-88
2022/05/21 10:57:59;;;;;;;4.97;2.30;;;;;;;17.85;56.95;100387.53;4941167;29;20109;-88
2022/05/21 11:00:50;;;;;;;6.43;1.88;;;;;;;17.86;57.62;100383.81;4959285;28;20035;-88
2022/05/21 11:03:38;;;;;;;5.72;2.10;;;;;;;17.91;57.38;100376.88;4959914;28;20035;-88
2022/05/21 11:06:23;;;;;;;6.55;2.13;;;;;;;17.86;57.50;100379.25;4943659;28;20034;-86
2022/05/21 11:09:15;;;;;;;5.82;1.92;;;;;;;17.84;57.41;100384.00;4959937;28;20447;-89
2022/05/21 11:12:03;;;;;;;5.75;1.80;;;;;;;17.94;57.27;100384.63;4943840;28;20031;-88
2022/05/21 11:14:46;;;;;;;4.05;2.13;;;;;;;18.06;57.67;100385.13;4944416;28;20027;-87
2022/05/21 11:18:05;;;;;;;4.93;1.35;;;;;;;18.23;58.03;100375.06;4926132;29;20035;-88
2022/05/21 11:20:37;;;;;;;4.95;1.60;;;;;;;18.30;55.64;100383.31;4864746;29;20089;-88
2022/05/21 11:23:29;;;;;;;5.07;1.45;;;;;;;18.20;54.15;100394.34;4912304;29;20063;-88
2022/05/21 11:26:02;;;;;;;4.47;1.75;;;;;;;18.28;56.15;100385.34;4906460;29;20050;-88
2022/05/21 11:28:34;;;;;;;4.40;1.60;;;;;;;18.34;56.28;100382.78;4924548;29;20066;-88
2022/05/21 11:31:04;;;;;;;2.80;1.40;;;;;;;18.37;56.88;100387.00;4940380;29;20083;-89
2022/05/21 11:39:06;;;;;;;3.05;1.30;;;;;;;18.40;54.79;100379.34;4962357;28;20042;-88
2022/05/21 11:42:03;;;;;;;4.50;1.30;;;;;;;18.49;57.11;100386.44;4943555;28;20042;-89
2022/05/21 11:44:59;;;;;;;2.67;1.40;;;;;;;18.58;57.84;100372.84;4959830;28;20057;-89
2022/05/21 11:47:40;;;;;;;2.15;1.40;;;;;;;18.60;58.05;100376.19;4948964;28;20050;-89
2022/05/21 11:50:18;;;;;;;4.65;1.60;;;;;;;18.62;57.73;100372.31;4958533;28;20377;-88
2022/05/21 11:52:53;;;;;;;3.38;1.60;;;;;;;18.73;59.81;100371.91;4938666;28;20027;-88
2022/05/21 11:55:25;;;;;;;6.90;1.75;;;;;;;18.66;56.45;100378.22;4958673;28;20030;-87
2022/05/21 11:57:52;;;;;;;4.15;1.30;;;;;;;18.69;56.87;100376.00;4958750;28;20031;-87
2022/05/21 12:00:18;;;;;;;3.40;1.23;;;;;;;18.70;54.67;100364.13;4958767;28;20421;-87
2022/05/21 12:02:53;;;;;;;4.33;1.10;;;;;;;18.76;55.56;100365.28;4958142;28;20027;-86
2022/05/21 12:05:40;;;;;;;3.45;1.02;;;;;;;18.78;54.66;100366.78;4955690;28;20302;-86
2022/05/21 12:08:30;;;;;;;3.92;1.20;;;;;;;18.77;55.30;100367.81;4951514;29;20070;-87
2022/05/21 12:11:04;;;;;;;2.22;1.10;;;;;;;18.74;57.05;100365.47;4937419;29;20386;-85